Time;durP1;ratioP1;P1;durP2;ratioP2;P2;SDS_P1;SDS_P2;PMS_P1;PMS_P2;Temp;Humidity;BMP_temperature;BMP_pressure;BME280_temperature;BME280_humidity;BME280_pressure;Samples;Min_cycle;Max_cycle;Signal;HPM_P1;HPM_P2
2021/04/08 00:01:13;;;;;;;;;;;17.70;50.10;;;;;;5043678;28;19974;-71
2021/04/08 00:03:38;;;;;;;;;;;17.70;50.10;;;;;;5044269;28;20360;-70
2021/04/08 00:06:04;;;;;;;;;;;17.70;50.00;;;;;;5043728;28;19974;-70
2021/04/08 00:08:29;;;;;;;;;;;17.70;50.00;;;;;;5042504;28;20031;-70
2021/04/08 00:10:55;;;;;;;;;;;17.70;50.00;;;;;;5044452;28;19924;-70
2021/04/08 00:13:20;;;;;;;;;;;17.70;50.00;;;;;;5044122;28;19920;-70
2021/04/08 00:15:46;;;;;;;;;;;17.70;50.00;;;;;;5044068;28;19924;-67
2021/04/08 00:18:11;;;;;;;;;;;17.70;49.90;;;;;;5042602;28;19917;-69
2021/04/08 00:20:37;;;;;;;;;;;17.70;49.90;;;;;;5043489;28;20381;-73
2021/04/08 00:23:02;;;;;;;;;;;17.60;49.80;;;;;;5044038;28;19916;-67
2021/04/08 00:25:28;;;;;;;;;;;17.70;49.90;;;;;;5043148;28;19928;-72
2021/04/08 00:27:53;;;;;;;;;;;17.60;49.80;;;;;;5044020;28;20136;-72
2021/04/08 00:30:19;;;;;;;;;;;17.70;49.90;;;;;;5044038;28;19929;-71
2021/04/08 00:32:44;;;;;;;;;;;17.70;49.90;;;;;;5043652;28;19924;-70
2021/04/08 00:35:10;;;;;;;;;;;17.60;49.80;;;;;;5043888;28;19921;-70
2021/04/08 00:37:35;;;;;;;;;;;17.60;49.80;;;;;;5043471;28;20444;-68
2021/04/08 00:40:01;;;;;;;;;;;17.60;49.80;;;;;;5044538;28;20630;-70
2021/04/08 00:42:26;;;;;;;;;;;17.60;49.80;;;;;;5043862;28;20464;-71
2021/04/08 00:44:52;;;;;;;;;;;17.70;49.90;;;;;;5043811;28;19924;-71
2021/04/08 00:47:17;;;;;;;;;;;17.60;49.80;;;;;;5041521;28;19921;-68
2021/04/08 00:49:42;;;;;;;;;;;17.60;49.80;;;;;;5044112;28;20557;-68
2021/04/08 00:52:08;;;;;;;;;;;17.60;49.80;;;;;;5043079;28;19920;-68
2021/04/08 00:54:34;;;;;;;;;;;17.60;49.80;;;;;;5043839;28;19923;-68
2021/04/08 00:56:59;;;;;;;;;;;17.60;49.80;;;;;;5041993;28;20305;-70
2021/04/08 00:59:24;;;;;;;;;;;17.60;49.70;;;;;;5044188;28;19928;-70
2021/04/08 01:01:50;;;;;;;;;;;17.60;49.70;;;;;;5041671;28;20401;-70
2021/04/08 01:04:15;;;;;;;;;;;17.60;49.70;;;;;;5042265;28;19920;-70
2021/04/08 01:06:41;;;;;;;;;;;17.60;49.60;;;;;;5041831;28;19917;-72
2021/04/08 01:09:06;;;;;;;;;;;17.60;49.60;;;;;;5044059;28;19916;-72
2021/04/08 01:11:32;;;;;;;;;;;17.60;49.60;;;;;;5043364;28;20431;-71
2021/04/08 01:13:57;;;;;;;;;;;17.60;49.60;;;;;;5044030;28;19924;-69
2021/04/08 01:16:26;;;;;;;;;;;17.60;49.60;;;;;;5043066;28;19921;-70
2021/04/08 01:19:10;;;;;;;;;;;17.60;49.50;;;;;;5043368;28;19940;-70
2021/04/08 01:21:39;;;;;;;;;;;17.60;49.50;;;;;;5043462;28;20305;-69
2021/04/08 01:24:20;;;;;;;;;;;17.60;49.50;;;;;;5042175;28;20600;-71
2021/04/08 01:27:04;;;;;;;;;;;17.60;49.40;;;;;;5042638;28;19927;-69
2021/04/08 01:29:56;;;;;;;;;;;17.60;49.40;;;;;;5044185;28;19932;-69
2021/04/08 01:32:22;;;;;;;;;;;17.60;49.40;;;;;;5040809;28;20352;-70
2021/04/08 01:34:48;;;;;;;;;;;17.70;49.40;;;;;;5043086;28;19923;-70
2021/04/08 01:37:13;;;;;;;;;;;17.70;49.30;;;;;;5042804;28;19921;-71
2021/04/08 01:39:39;;;;;;;;;;;17.70;49.20;;;;;;5042318;28;19925;-71
2021/04/08 01:42:05;;;;;;;;;;;17.70;49.20;;;;;;5041720;28;20455;-71
2021/04/08 01:44:30;;;;;;;;;;;17.70;49.20;;;;;;5042852;28;19917;-71
2021/04/08 01:46:59;;;;;;;;;;;17.70;49.20;;;;;;5043231;28;20370;-73
2021/04/08 01:49:25;;;;;;;;;;;17.70;49.20;;;;;;5043277;28;19921;-73
2021/04/08 01:51:51;;;;;;;;;;;17.70;49.20;;;;;;5042201;28;19916;-71
2021/04/08 01:54:16;;;;;;;;;;;17.70;49.20;;;;;;5046588;28;19921;-71
2021/04/08 01:56:42;;;;;;;;;;;17.70;49.30;;;;;;5045091;28;19925;-71
2021/04/08 01:59:07;;;;;;;;;;;17.60;49.20;;;;;;5045627;28;19948;-70
2021/04/08 02:01:33;;;;;;;;;;;17.60;49.20;;;;;;5045130;28;19924;-69
2021/04/08 02:03:58;;;;;;;;;;;17.60;49.30;;;;;;5046110;28;20399;-70
2021/04/08 02:06:25;;;;;;;;;;;17.60;49.30;;;;;;5046858;28;19917;-71
2021/04/08 02:08:50;;;;;;;;;;;17.60;49.30;;;;;;5045859;28;19927;-70
2021/04/08 02:11:16;;;;;;;;;;;17.60;49.30;;;;;;5046384;28;19920;-70
2021/04/08 02:13:42;;;;;;;;;;;17.60;49.30;;;;;;5047658;28;20774;-67
2021/04/08 02:16:08;;;;;;;;;;;17.60;49.30;;;;;;5046572;28;19926;-71
2021/04/08 02:18:34;;;;;;;;;;;17.60;49.20;;;;;;5047434;28;19917;-70
2021/04/08 02:21:00;;;;;;;;;;;17.50;49.20;;;;;;5047879;28;19988;-69
2021/04/08 02:23:25;;;;;;;;;;;17.60;49.20;;;;;;5047432;28;19942;-70
2021/04/08 02:25:51;;;;;;;;;;;17.60;49.20;;;;;;5047187;28;19916;-70
2021/04/08 02:28:17;;;;;;;;;;;17.60;49.20;;;;;;5044991;28;19921;-70
2021/04/08 02:30:46;;;;;;;;;;;17.60;49.20;;;;;;5044720;28;19927;-68
2021/04/08 02:33:14;;;;;;;;;;;17.60;49.20;;;;;;5046946;28;19916;-72
2021/04/08 02:35:39;;;;;;;;;;;17.50;49.10;;;;;;5044461;28;19936;-70
2021/04/08 02:38:05;;;;;;;;;;;17.60;49.10;;;;;;5046918;28;19974;-70
2021/04/08 02:40:30;;;;;;;;;;;17.50;49.00;;;;;;5045900;28;20371;-69
2021/04/08 02:42:56;;;;;;;;;;;17.60;49.00;;;;;;5046562;28;19921;-71
2021/04/08 02:45:21;;;;;;;;;;;17.60;49.00;;;;;;5046447;28;20430;-72
2021/04/08 02:47:46;;;;;;;;;;;17.60;49.00;;;;;;5044774;28;19921;-70
2021/04/08 02:50:13;;;;;;;;;;;17.60;48.90;;;;;;5053113;28;19923;-70
2021/04/08 02:52:56;;;;;;;;;;;17.60;48.80;;;;;;5052899;28;19921;-70
2021/04/08 02:55:23;;;;;;;;;;;17.60;48.80;;;;;;5047878;28;20003;-73
2021/04/08 02:57:52;;;;;;;;;;;17.60;48.70;;;;;;5055471;28;19917;-70
2021/04/08 03:00:17;;;;;;;;;;;17.60;48.70;;;;;;5053572;28;20294;-72
2021/04/08 03:02:43;;;;;;;;;;;17.60;48.60;;;;;;5052571;28;20396;-71
2021/04/08 03:05:08;;;;;;;;;;;17.60;48.70;;;;;;5050613;28;19991;-70
2021/04/08 03:07:39;;;;;;;;;;;17.60;48.80;;;;;;5051206;28;19921;-73
2021/04/08 03:10:05;;;;;;;;;;;17.60;48.70;;;;;;5058454;28;19944;-73
2021/04/08 03:12:30;;;;;;;;;;;17.60;48.70;;;;;;5066357;28;19925;-73
2021/04/08 03:14:56;;;;;;;;;;;17.60;48.80;;;;;;5058078;28;19963;-72
2021/04/08 03:17:22;;;;;;;;;;;17.60;48.80;;;;;;5030832;28;19917;-72
2021/04/08 03:19:47;;;;;;;;;;;17.50;48.80;;;;;;5046959;28;20477;-70
2021/04/08 03:22:13;;;;;;;;;;;17.50;48.80;;;;;;5046442;28;20519;-70
2021/04/08 03:24:38;;;;;;;;;;;17.50;48.80;;;;;;5047301;28;19916;-70
2021/04/08 03:27:04;;;;;;;;;;;17.50;48.80;;;;;;5039719;28;20026;-71
2021/04/08 03:29:30;;;;;;;;;;;17.50;48.80;;;;;;5046966;28;19963;-70
2021/04/08 03:31:55;;;;;;;;;;;17.50;48.80;;;;;;5047348;28;19923;-70
2021/04/08 03:34:21;;;;;;;;;;;17.50;48.70;;;;;;5046419;28;20297;-69
2021/04/08 03:36:46;;;;;;;;;;;17.50;49.40;;;;;;5045575;28;19974;-71
2021/04/08 03:39:12;;;;;;;;;;;17.50;48.70;;;;;;5046012;28;19916;-70
2021/04/08 03:41:38;;;;;;;;;;;17.50;48.60;;;;;;5045652;28;20336;-72
2021/04/08 03:44:04;;;;;;;;;;;17.50;48.60;;;;;;5045303;28;19948;-73
2021/04/08 03:46:30;;;;;;;;;;;17.50;48.70;;;;;;5043518;28;19923;-73
2021/04/08 03:48:55;;;;;;;;;;;17.50;48.60;;;;;;5043370;28;19924;-70
2021/04/08 03:51:21;;;;;;;;;;;17.50;48.60;;;;;;5042624;28;19916;-70
2021/04/08 03:53:46;;;;;;;;;;;17.50;48.60;;;;;;5042112;28;19928;-72
2021/04/08 03:56:12;;;;;;;;;;;17.50;48.60;;;;;;5042592;28;20127;-69
2021/04/08 03:58:37;;;;;;;;;;;17.50;48.60;;;;;;5043450;28;19916;-70
2021/04/08 04:01:03;;;;;;;;;;;17.50;48.50;;;;;;5043745;28;19942;-70
2021/04/08 04:03:28;;;;;;;;;;;17.50;48.60;;;;;;5043301;28;20502;-74
2021/04/08 04:05:54;;;;;;;;;;;17.50;48.50;;;;;;5044436;28;19928;-72
2021/04/08 04:08:19;;;;;;;;;;;17.50;48.40;;;;;;5045488;28;19967;-68
2021/04/08 04:10:45;;;;;;;;;;;17.50;48.30;;;;;;5042810;28;19920;-70
2021/04/08 04:13:11;;;;;;;;;;;17.50;48.40;;;;;;5023576;28;19928;-72
2021/04/08 04:15:36;;;;;;;;;;;17.50;48.40;;;;;;5026192;28;19920;-68
2021/04/08 04:18:05;;;;;;;;;;;17.50;48.40;;;;;;5044083;28;19928;-73
2021/04/08 04:20:31;;;;;;;;;;;17.50;48.40;;;;;;5045223;28;20018;-70
2021/04/08 04:22:56;;;;;;;;;;;17.50;48.50;;;;;;5045498;28;20382;-74
2021/04/08 04:25:21;;;;;;;;;;;17.50;48.70;;;;;;5044932;28;19917;-74
2021/04/08 04:27:47;;;;;;;;;;;17.50;49.00;;;;;;5044093;28;20380;-72
2021/04/08 04:30:13;;;;;;;;;;;17.40;49.10;;;;;;5045082;28;19924;-72
2021/04/08 04:32:38;;;;;;;;;;;17.40;49.30;;;;;;5044123;28;20290;-74
2021/04/08 04:35:04;;;;;;;;;;;17.40;49.40;;;;;;5043671;28;19966;-71
2021/04/08 04:37:30;;;;;;;;;;;17.40;49.50;;;;;;5043861;28;19921;-72
2021/04/08 04:39:55;;;;;;;;;;;17.40;49.50;;;;;;5043562;28;20550;-71
2021/04/08 04:42:20;;;;;;;;;;;17.40;49.50;;;;;;5045206;28;19990;-70
2021/04/08 04:44:46;;;;;;;;;;;17.30;49.50;;;;;;5043619;28;19921;-70
2021/04/08 04:47:11;;;;;;;;;;;17.40;49.50;;;;;;5044141;28;19940;-72
2021/04/08 04:49:37;;;;;;;;;;;17.40;49.50;;;;;;5045939;28;20423;-69
2021/04/08 04:52:03;;;;;;;;;;;17.40;49.40;;;;;;5046849;28;19917;-70
2021/04/08 04:54:28;;;;;;;;;;;17.40;49.40;;;;;;5042034;28;19966;-70
2021/04/08 04:56:54;;;;;;;;;;;17.40;49.70;;;;;;5042814;28;19928;-70
2021/04/08 04:59:19;;;;;;;;;;;17.40;50.00;;;;;;5043959;28;19916;-68
2021/04/08 05:01:45;;;;;;;;;;;17.40;50.10;;;;;;5042697;28;19982;-77
2021/04/08 05:04:10;;;;;;;;;;;17.40;50.30;;;;;;5025159;28;20336;-68
2021/04/08 05:06:36;;;;;;;;;;;17.40;50.40;;;;;;5042541;28;19955;-69
2021/04/08 05:09:01;;;;;;;;;;;17.40;50.40;;;;;;5044699;28;19917;-70
2021/04/08 05:11:27;;;;;;;;;;;17.40;50.50;;;;;;5043453;28;19917;-72
2021/04/08 05:13:52;;;;;;;;;;;17.40;50.60;;;;;;5043978;28;19920;-69
2021/04/08 05:16:18;;;;;;;;;;;17.40;50.40;;;;;;5043206;28;19994;-69
2021/04/08 05:18:43;;;;;;;;;;;17.40;50.30;;;;;;5043369;28;19971;-69
2021/04/08 05:21:09;;;;;;;;;;;17.40;50.20;;;;;;5043529;28;20558;-70
2021/04/08 05:23:34;;;;;;;;;;;17.40;50.00;;;;;;5043648;28;19920;-70
2021/04/08 05:25:59;;;;;;;;;;;17.30;49.70;;;;;;5043925;28;19964;-69
2021/04/08 05:28:25;;;;;;;;;;;17.30;49.50;;;;;;5045994;28;19924;-69
2021/04/08 05:30:50;;;;;;;;;;;17.30;49.40;;;;;;5047752;28;20739;-69
2021/04/08 05:33:16;;;;;;;;;;;17.30;49.30;;;;;;5047634;28;19920;-70
2021/04/08 05:35:41;;;;;;;;;;;17.30;49.10;;;;;;5047617;28;19925;-71
2021/04/08 05:38:07;;;;;;;;;;;17.40;49.10;;;;;;5048355;28;20454;-70
2021/04/08 05:40:32;;;;;;;;;;;17.30;49.00;;;;;;5048317;28;20413;-68
2021/04/08 05:42:58;;;;;;;;;;;17.40;49.10;;;;;;5048390;28;19924;-70
2021/04/08 05:45:26;;;;;;;;;;;17.40;49.20;;;;;;5048356;28;19966;-70
2021/04/08 05:47:52;;;;;;;;;;;17.40;49.30;;;;;;5040412;28;19917;-70
2021/04/08 05:50:17;;;;;;;;;;;17.30;49.40;;;;;;5048289;28;19932;-69
2021/04/08 05:52:42;;;;;;;;;;;17.40;49.70;;;;;;5047797;28;19921;-69
2021/04/08 05:55:08;;;;;;;;;;;17.40;49.90;;;;;;5044067;23;19926;-59
2021/04/08 05:57:34;;;;;;;;;;;17.40;50.00;;;;;;5004767;28;20312;-59
2021/04/08 05:59:59;;;;;;;;;;;17.40;50.20;;;;;;5004477;28;19992;-59
2021/04/08 06:02:25;;;;;;;;;;;17.40;50.30;;;;;;5005499;28;19917;-59
2021/04/08 06:04:50;;;;;;;;;;;17.40;50.40;;;;;;5005282;28;20367;-60
2021/04/08 06:07:15;;;;;;;;;;;17.50;50.40;;;;;;5005036;28;19948;-59
2021/04/08 06:09:41;;;;;;;;;;;17.50;50.40;;;;;;5004811;28;19921;-58
2021/04/08 06:12:07;;;;;;;;;;;17.50;50.40;;;;;;5004414;28;19929;-59
2021/04/08 06:14:33;;;;;;;;;;;17.50;50.30;;;;;;5005166;28;19945;-57
2021/04/08 06:16:58;;;;;;;;;;;17.60;50.50;;;;;;5003247;28;20055;-58
2021/04/08 06:19:24;;;;;;;;;;;17.60;50.70;;;;;;5003390;28;21367;-57
2021/04/08 06:21:49;;;;;;;;;;;17.60;50.80;;;;;;5003583;28;19922;-57
2021/04/08 06:24:15;;;;;;;;;;;17.60;50.90;;;;;;5002905;28;19932;-58
2021/04/08 06:26:40;;;;;;;;;;;17.60;51.60;;;;;;5003711;28;20571;-58
2021/04/08 06:29:06;;;;;;;;;;;17.60;51.10;;;;;;5003352;28;19925;-58
2021/04/08 06:31:32;;;;;;;;;;;17.60;51.20;;;;;;5002358;28;20012;-58
2021/04/08 06:33:58;;;;;;;;;;;17.60;51.30;;;;;;5002520;28;19925;-58
2021/04/08 06:36:24;;;;;;;;;;;17.60;51.30;;;;;;5003187;28;19921;-59
2021/04/08 06:38:49;;;;;;;;;;;17.60;51.30;;;;;;5003661;28;19925;-58
2021/04/08 06:41:15;;;;;;;;;;;17.60;51.30;;;;;;5003411;28;19918;-59
2021/04/08 06:43:41;;;;;;;;;;;17.70;51.30;;;;;;5003181;28;19917;-58
2021/04/08 06:46:06;;;;;;;;;;;17.70;51.30;;;;;;5003318;28;19929;-59
2021/04/08 06:48:38;;;;;;;;;;;17.70;51.30;;;;;;5003374;28;20291;-59
2021/04/08 06:51:03;;;;;;;;;;;17.70;51.30;;;;;;5001993;28;19928;-59
2021/04/08 06:53:29;;;;;;;;;;;17.60;51.80;;;;;;5003171;28;20454;-59
2021/04/08 06:55:54;;;;;;;;;;;17.70;51.20;;;;;;5002695;28;19931;-59
2021/04/08 06:58:20;;;;;;;;;;;17.70;51.20;;;;;;5007336;28;20374;-58
2021/04/08 07:00:45;;;;;;;;;;;17.70;51.10;;;;;;5005403;28;19918;-60
2021/04/08 07:03:11;;;;;;;;;;;17.70;51.10;;;;;;5001538;28;20011;-58
2021/04/08 07:05:36;;;;;;;;;;;17.70;51.00;;;;;;5001644;28;19917;-58
2021/04/08 07:08:01;;;;;;;;;;;17.70;50.90;;;;;;5003237;28;19955;-60
2021/04/08 07:10:27;;;;;;;;;;;17.70;50.90;;;;;;5002730;28;19924;-60
2021/04/08 07:12:53;;;;;;;;;;;17.60;50.80;;;;;;5002169;28;19925;-58
2021/04/08 07:15:18;;;;;;;;;;;17.70;50.70;;;;;;5003393;28;19964;-59
2021/04/08 07:17:44;;;;;;;;;;;17.70;50.70;;;;;;5002284;28;19958;-59
2021/04/08 07:20:09;;;;;;;;;;;17.70;50.60;;;;;;5001793;28;19918;-58
2021/04/08 07:22:35;;;;;;;;;;;17.70;50.50;;;;;;5002664;28;19924;-63
2021/04/08 07:25:00;;;;;;;;;;;17.60;50.40;;;;;;5003575;28;19918;-58
2021/04/08 07:27:31;;;;;;;;;;;17.60;50.40;;;;;;5002611;28;19925;-58
2021/04/08 07:29:57;;;;;;;;;;;17.60;50.30;;;;;;5001759;28;19932;-58
2021/04/08 07:32:24;;;;;;;;;;;17.60;50.30;;;;;;5001297;28;19965;-58
2021/04/08 07:34:51;;;;;;;;;;;17.60;50.20;;;;;;5002207;28;19924;-56
2021/04/08 07:37:23;;;;;;;;;;;17.60;50.10;;;;;;5002255;28;19925;-57
2021/04/08 07:39:49;;;;;;;;;;;17.60;50.10;;;;;;5001672;28;19924;-56
2021/04/08 07:42:15;;;;;;;;;;;17.60;50.20;;;;;;5001371;28;19925;-58
2021/04/08 07:44:50;;;;;;;;;;;17.60;50.20;;;;;;5002432;28;20008;-60
2021/04/08 07:47:19;;;;;;;;;;;17.60;50.40;;;;;;5001611;28;19921;-58
2021/04/08 07:49:45;;;;;;;;;;;17.60;50.50;;;;;;5001795;28;19917;-58
2021/04/08 07:52:16;;;;;;;;;;;17.60;50.70;;;;;;5000101;28;20392;-59
2021/04/08 07:55:05;;;;;;;;;;;17.60;50.80;;;;;;5001758;28;20076;-58
2021/04/08 07:57:31;;;;;;;;;;;17.60;50.90;;;;;;4974032;28;19922;-57
2021/04/08 07:59:57;;;;;;;;;;;17.60;51.10;;;;;;5002073;28;19918;-59
2021/04/08 08:02:25;;;;;;;;;;;17.60;51.20;;;;;;5000898;28;19929;-58
2021/04/08 08:05:14;;;;;;;;;;;17.60;51.40;;;;;;5001613;28;19922;-58
2021/04/08 08:07:40;;;;;;;;;;;17.60;51.60;;;;;;4988112;28;19995;-58
2021/04/08 08:10:06;;;;;;;;;;;17.60;51.70;;;;;;5002466;28;20368;-62
2021/04/08 08:12:32;;;;;;;;;;;17.60;51.80;;;;;;4999715;28;19917;-57
2021/04/08 08:15:18;;;;;;;;;;;17.60;52.00;;;;;;5002786;28;19964;-57
2021/04/08 08:17:43;;;;;;;;;;;17.60;52.00;;;;;;5000504;28;20399;-59
2021/04/08 08:20:09;;;;;;;;;;;17.60;52.20;;;;;;5000715;28;19918;-58
2021/04/08 08:22:35;;;;;;;;;;;17.60;52.30;;;;;;5001798;28;20000;-57
2021/04/08 08:25:00;;;;;;;;;;;17.60;52.20;;;;;;5001819;28;19924;-58
2021/04/08 08:27:41;;;;;;;;;;;17.60;52.40;;;;;;5001571;28;19960;-58
2021/04/08 08:30:07;;;;;;;;;;;17.70;52.50;;;;;;5001754;28;19917;-58
2021/04/08 08:32:33;;;;;;;;;;;17.70;52.40;;;;;;5002253;28;20450;-59
2021/04/08 08:34:58;;;;;;;;;;;17.70;52.60;;;;;;5002295;28;19918;-59
2021/04/08 08:37:24;;;;;;;;;;;17.70;52.60;;;;;;5001728;28;20374;-59
2021/04/08 08:39:49;;;;;;;;;;;17.70;52.60;;;;;;5000069;28;19925;-59
2021/04/08 08:42:16;;;;;;;;;;;17.80;52.70;;;;;;5001373;28;20405;-60
2021/04/08 08:44:42;;;;;;;;;;;17.70;52.60;;;;;;5002138;28;19928;-59
2021/04/08 08:47:11;;;;;;;;;;;17.80;52.60;;;;;;5001411;28;20275;-59
2021/04/08 08:49:40;;;;;;;;;;;17.80;52.50;;;;;;4999985;28;19917;-59
2021/04/08 08:52:06;;;;;;;;;;;17.80;52.60;;;;;;5000722;28;19949;-60
2021/04/08 08:54:32;;;;;;;;;;;17.80;52.70;;;;;;5000526;28;19917;-58
2021/04/08 08:56:58;;;;;;;;;;;17.80;52.60;;;;;;4992940;28;19972;-59
2021/04/08 08:59:23;;;;;;;;;;;17.80;52.50;;;;;;5001545;28;19918;-59
2021/04/08 09:01:48;;;;;;;;;;;17.80;52.40;;;;;;5001484;28;20044;-60
2021/04/08 09:04:14;;;;;;;;;;;17.80;52.50;;;;;;5003078;28;19917;-61
2021/04/08 09:06:41;;;;;;;;;;;17.80;52.40;;;;;;5005499;28;19932;-59
2021/04/08 09:09:09;;;;;;;;;;;17.80;52.30;;;;;;5004996;28;19925;-61
2021/04/08 09:11:36;;;;;;;;;;;17.80;52.30;;;;;;5003848;28;19936;-60
2021/04/08 09:14:01;;;;;;;;;;;17.80;52.10;;;;;;5004302;28;20012;-60
2021/04/08 09:16:30;;;;;;;;;;;17.80;51.90;;;;;;5005361;28;20623;-58
2021/04/08 09:18:59;;;;;;;;;;;17.80;52.30;;;;;;5005348;28;20071;-58
2021/04/08 09:21:24;;;;;;;;;;;17.80;51.60;;;;;;5003762;28;19965;-59
2021/04/08 09:24:05;;;;;;;;;;;17.80;51.40;;;;;;5008235;28;19957;-59
2021/04/08 09:26:31;;;;;;;;;;;17.80;51.30;;;;;;5006666;28;19917;-59
2021/04/08 09:28:56;;;;;;;;;;;17.80;51.20;;;;;;5003563;28;19918;-59
2021/04/08 09:31:24;;;;;;;;;;;17.80;51.10;;;;;;5005057;28;19994;-59
2021/04/08 09:33:52;;;;;;;;;;;17.80;51.00;;;;;;5005439;28;19921;-59
2021/04/08 09:36:20;;;;;;;;;;;17.80;51.10;;;;;;5005248;28;19922;-59
2021/04/08 09:38:49;;;;;;;;;;;17.80;50.90;;;;;;5004691;28;19922;-59
2021/04/08 09:41:14;;;;;;;;;;;17.80;50.80;;;;;;5004032;28;19939;-58
2021/04/08 09:43:40;;;;;;;;;;;17.80;50.70;;;;;;5003611;28;19918;-59
2021/04/08 09:46:09;;;;;;;;;;;17.80;50.70;;;;;;5005052;28;19922;-58
2021/04/08 09:48:45;;;;;;;;;;;17.80;50.70;;;;;;5004964;28;19991;-57
2021/04/08 09:51:23;;;;;;;;;;;17.80;50.60;;;;;;5004397;28;19925;-58
2021/04/08 09:53:54;;;;;;;;;;;17.80;50.50;;;;;;5004517;28;21960;-59
2021/04/08 09:56:38;;;;;;;;;;;17.80;50.40;;;;;;5004858;28;20355;-60
2021/04/08 09:59:03;;;;;;;;;;;17.80;50.30;;;;;;5009195;28;19971;-59
2021/04/08 10:01:29;;;;;;;;;;;17.80;50.30;;;;;;5023497;28;19920;-59
2021/04/08 10:03:54;;;;;;;;;;;17.80;50.30;;;;;;5012878;28;19948;-59
2021/04/08 10:06:23;;;;;;;;;;;17.80;50.20;;;;;;5004547;28;19943;-59
2021/04/08 10:08:49;;;;;;;;;;;17.80;50.10;;;;;;5004588;28;19924;-59
2021/04/08 10:11:14;;;;;;;;;;;17.80;50.10;;;;;;5003826;28;20322;-59
2021/04/08 10:13:41;;;;;;;;;;;17.80;50.10;;;;;;4993185;28;20383;-58
2021/04/08 10:16:09;;;;;;;;;;;17.80;49.90;;;;;;5000810;28;20568;-60
2021/04/08 10:18:35;;;;;;;;;;;17.80;50.00;;;;;;5001008;28;19960;-59
2021/04/08 10:21:01;;;;;;;;;;;17.80;50.00;;;;;;4999908;28;20462;-59
2021/04/08 10:23:59;;;;;;;;;;;17.80;49.90;;;;;;5001683;28;19926;-59
2021/04/08 10:26:31;;;;;;;;;;;17.80;50.00;;;;;;4967328;28;19918;-59
2021/04/08 10:28:58;;;;;;;;;;;17.80;50.00;;;;;;5000558;28;19928;-59
2021/04/08 10:31:28;;;;;;;;;;;17.80;50.10;;;;;;4998687;28;20083;-59
2021/04/08 10:34:03;;;;;;;;;;;17.80;50.00;;;;;;5000811;28;19992;-59
2021/04/08 10:36:30;;;;;;;;;;;17.70;50.10;;;;;;5000259;28;19922;-59
2021/04/08 10:39:17;;;;;;;;;;;17.70;50.10;;;;;;4999839;28;19925;-58
2021/04/08 10:41:55;;;;;;;;;;;17.70;50.20;;;;;;5000081;28;19929;-59
2021/04/08 10:44:20;;;;;;;;;;;17.70;50.20;;;;;;5000859;28;19948;-60
2021/04/08 10:46:45;;;;;;;;;;;17.70;50.10;;;;;;5000581;28;19990;-60
2021/04/08 10:49:17;;;;;;;;;;;17.70;50.20;;;;;;5000387;28;19967;-58
2021/04/08 10:51:42;;;;;;;;;;;17.70;50.10;;;;;;5000701;28;19929;-58
2021/04/08 10:54:08;;;;;;;;;;;17.70;50.10;;;;;;5000119;28;21207;-61
2021/04/08 10:56:33;;;;;;;;;;;17.70;50.10;;;;;;4999329;28;19926;-62
2021/04/08 10:59:15;;;;;;;;;;;17.70;50.10;;;;;;4999828;28;19926;-63
2021/04/08 11:01:41;;;;;;;;;;;17.80;50.70;;;;;;4998197;28;19958;-62
2021/04/08 11:04:06;;;;;;;;;;;17.80;49.80;;;;;;4999688;28;19929;-59
2021/04/08 11:06:32;;;;;;;;;;;17.80;49.80;;;;;;5000216;28;20434;-59
2021/04/08 11:08:57;;;;;;;;;;;17.80;49.80;;;;;;4999509;28;19928;-59
2021/04/08 11:11:24;;;;;;;;;;;17.80;49.70;;;;;;5015007;23;19905;-66
2021/04/08 11:13:49;;;;;;;;;;;17.80;49.80;;;;;;5023925;28;19976;-67
2021/04/08 11:16:15;;;;;;;;;;;17.80;49.80;;;;;;5023620;28;19917;-67
2021/04/08 11:18:40;;;;;;;;;;;17.80;49.70;;;;;;5026597;28;19916;-67
2021/04/08 11:21:05;;;;;;;;;;;17.80;49.60;;;;;;5020195;28;20374;-68
2021/04/08 11:23:31;;;;;;;;;;;17.80;49.70;;;;;;5009076;28;19959;-67
2021/04/08 11:26:03;;;;;;;;;;;17.80;49.60;;;;;;5026136;28;19913;-67
2021/04/08 11:28:28;;;;;;;;;;;17.70;49.50;;;;;;5009244;28;19925;-67
2021/04/08 11:30:54;;;;;;;;;;;17.70;49.50;;;;;;5026690;28;19909;-66
2021/04/08 11:33:20;;;;;;;;;;;17.70;49.50;;;;;;5009195;28;19912;-66
2021/04/08 11:35:45;;;;;;;;;;;17.70;49.50;;;;;;5026296;28;19921;-67
2021/04/08 11:38:13;;;;;;;;;;;17.70;49.50;;;;;;5026839;28;20329;-67
2021/04/08 11:40:39;;;;;;;;;;;17.70;49.50;;;;;;5026711;28;19979;-68
2021/04/08 11:43:25;;;;;;;;;;;17.70;50.10;;;;;;5026340;28;19916;-67
2021/04/08 11:45:54;;;;;;;;;;;17.70;49.50;;;;;;5025547;28;19940;-67
2021/04/08 11:48:22;;;;;;;;;;;17.80;49.60;;;;;;5026803;28;19963;-67
2021/04/08 11:50:47;;;;;;;;;;;17.70;49.50;;;;;;5026628;28;20502;-67
2021/04/08 11:53:18;;;;;;;;;;;17.70;49.50;;;;;;5026506;28;19924;-67
2021/04/08 11:55:44;;;;;;;;;;;17.70;49.50;;;;;;5008628;28;19921;-67
2021/04/08 11:58:11;;;;;;;;;;;17.70;49.60;;;;;;5026426;28;19933;-67
2021/04/08 12:00:37;;;;;;;;;;;17.70;49.60;;;;;;5025666;28;19909;-66
2021/04/08 12:03:11;;;;;;;;;;;17.60;49.60;;;;;;5026628;28;19909;-67
2021/04/08 12:05:37;;;;;;;;;;;17.70;49.60;;;;;;5024216;28;19909;-68
2021/04/08 12:08:02;;;;;;;;;;;17.70;49.60;;;;;;5026259;28;20202;-65
2021/04/08 12:10:29;;;;;;;;;;;17.70;49.70;;;;;;4991917;28;19909;-67
2021/04/08 12:13:00;;;;;;;;;;;17.60;49.60;;;;;;5026263;28;19917;-66
2021/04/08 12:15:45;;;;;;;;;;;17.60;49.70;;;;;;5024923;28;19958;-65
2021/04/08 12:18:15;;;;;;;;;;;17.60;49.70;;;;;;5022670;28;20374;-67
2021/04/08 12:20:41;;;;;;;;;;;17.60;50.20;;;;;;5023659;28;20699;-67
2021/04/08 12:23:12;;;;;;;;;;;17.60;50.40;;;;;;5023198;28;19992;-68
2021/04/08 12:25:45;;;;;;;;;;;17.60;50.50;;;;;;5022059;28;19913;-67
2021/04/08 12:28:11;;;;;;;;;;;17.60;50.60;;;;;;5023693;28;19909;-67
2021/04/08 12:30:45;;;;;;;;;;;17.60;50.50;;;;;;5028269;28;19963;-67
2021/04/08 12:33:11;;;;;;;;;;;17.60;50.50;;;;;;5026410;28;19916;-68
2021/04/08 12:35:37;;;;;;;;;;;17.70;50.40;;;;;;5012873;28;19981;-68
2021/04/08 12:38:02;;;;;;;;;;;17.60;50.30;;;;;;5022119;28;19919;-67
2021/04/08 12:40:28;;;;;;;;;;;17.60;50.30;;;;;;5023277;28;19909;-68
2021/04/08 12:42:53;;;;;;;;;;;17.60;50.20;;;;;;5023775;28;19909;-65
2021/04/08 12:45:19;;;;;;;;;;;17.60;50.20;;;;;;5023411;28;20517;-68
2021/04/08 12:47:44;;;;;;;;;;;17.60;50.10;;;;;;5023047;28;19920;-65
2021/04/08 12:50:10;;;;;;;;;;;17.60;50.00;;;;;;5022736;28;19909;-67
2021/04/08 12:52:35;;;;;;;;;;;17.70;50.00;;;;;;5023002;28;20268;-67
2021/04/08 12:55:01;;;;;;;;;;;17.60;49.90;;;;;;5023228;28;20564;-68
2021/04/08 12:57:26;;;;;;;;;;;17.60;49.90;;;;;;5022809;28;19924;-67
2021/04/08 12:59:52;;;;;;;;;;;17.60;49.80;;;;;;5004871;28;19924;-67
2021/04/08 13:02:17;;;;;;;;;;;17.60;49.80;;;;;;5024249;28;20528;-67
2021/04/08 13:04:42;;;;;;;;;;;17.60;49.70;;;;;;5023797;28;19909;-67
2021/04/08 13:07:08;;;;;;;;;;;17.60;49.80;;;;;;5023076;28;19920;-67
2021/04/08 13:09:33;;;;;;;;;;;17.60;49.70;;;;;;5022971;28;19920;-67
2021/04/08 13:11:59;;;;;;;;;;;17.60;49.70;;;;;;5023426;28;20618;-67
2021/04/08 13:14:24;;;;;;;;;;;17.60;49.70;;;;;;5005712;28;19948;-67
2021/04/08 13:16:50;;;;;;;;;;;17.60;49.70;;;;;;5023433;28;19913;-67
2021/04/08 13:19:15;;;;;;;;;;;17.60;49.70;;;;;;5024928;28;19917;-68
2021/04/08 13:21:41;;;;;;;;;;;17.60;49.70;;;;;;5023346;28;19974;-66
2021/04/08 13:24:06;;;;;;;;;;;17.60;49.70;;;;;;5023774;28;20312;-66
2021/04/08 13:26:32;;;;;;;;;;;17.60;49.80;;;;;;5023175;28;19913;-66
2021/04/08 13:28:57;;;;;;;;;;;17.60;49.80;;;;;;5006398;28;19982;-65
2021/04/08 13:31:23;;;;;;;;;;;17.60;49.90;;;;;;5024321;28;19913;-68
2021/04/08 13:33:48;;;;;;;;;;;17.60;49.90;;;;;;5023320;28;20438;-67
2021/04/08 13:36:13;;;;;;;;;;;17.50;49.90;;;;;;5023274;28;19917;-67
2021/04/08 13:38:39;;;;;;;;;;;17.50;49.90;;;;;;5023607;28;19917;-68
2021/04/08 13:41:04;;;;;;;;;;;17.60;50.00;;;;;;5023379;28;20740;-67
2021/04/08 13:43:30;;;;;;;;;;;17.60;49.90;;;;;;5023229;28;19913;-66
2021/04/08 13:45:55;;;;;;;;;;;17.60;50.00;;;;;;5022970;28;19962;-67
2021/04/08 13:48:21;;;;;;;;;;;17.50;49.80;;;;;;5024075;28;20406;-66
2021/04/08 13:50:46;;;;;;;;;;;17.40;50.00;;;;;;5026455;28;20370;-66
2021/04/08 13:53:12;;;;;;;;;;;17.40;50.40;;;;;;5007324;28;19909;-67
2021/04/08 13:55:37;;;;;;;;;;;17.40;50.60;;;;;;5025526;28;19913;-68
2021/04/08 13:58:03;;;;;;;;;;;17.30;50.70;;;;;;5025801;28;19913;-68
2021/04/08 14:00:28;;;;;;;;;;;17.30;50.70;;;;;;5026893;28;20010;-68
2021/04/08 14:02:53;;;;;;;;;;;17.20;50.80;;;;;;5026239;28;19909;-67
2021/04/08 14:05:20;;;;;;;;;;;17.30;50.80;;;;;;5026205;28;19913;-68
2021/04/08 14:07:45;;;;;;;;;;;17.30;50.80;;;;;;5008619;28;19917;-67
2021/04/08 14:10:11;;;;;;;;;;;17.30;50.70;;;;;;5025698;28;19913;-68
2021/04/08 14:12:37;;;;;;;;;;;17.30;50.60;;;;;;5008336;28;19917;-68
2021/04/08 14:15:03;;;;;;;;;;;17.30;50.70;;;;;;5008221;28;19956;-67